createdAt,value
2023-02-12T00:01:35.065Z,101688.75
2023-02-12T00:04:03.750Z,101692.20
2023-02-12T00:06:32.124Z,101688.55
2023-02-12T00:09:00.847Z,101691.66
2023-02-12T00:11:30.090Z,101692.68
2023-02-12T00:13:59.266Z,101693.70
2023-02-12T00:16:29.328Z,101696.80
2023-02-12T00:18:58.885Z,101697.80
2023-02-12T00:21:27.862Z,101702.49
2023-02-12T00:23:57.124Z,101707.33
2023-02-12T00:26:25.663Z,101699.55
2023-02-12T00:28:55.412Z,101698.15
2023-02-12T00:31:29.789Z,101706.46
2023-02-12T00:34:00.033Z,101708.19
2023-02-12T00:36:31.373Z,101710.98
2023-02-12T00:39:00.359Z,101708.02
2023-02-12T00:41:29.366Z,101701.25
2023-02-12T00:43:58.133Z,101701.82
2023-02-12T00:46:26.509Z,101709.13
2023-02-12T00:48:54.880Z,101705.33
2023-02-12T00:51:23.335Z,101711.61
2023-02-12T00:53:51.756Z,101716.85
2023-02-12T00:56:20.081Z,101721.36
2023-02-12T00:58:48.416Z,101720.66
2023-02-12T01:01:17.140Z,101721.35
2023-02-12T01:03:45.418Z,101728.67
2023-02-12T01:06:13.832Z,101726.62
2023-02-12T01:08:42.175Z,101731.01
2023-02-12T01:11:13.778Z,101729.30
2023-02-12T01:13:42.200Z,101731.95
2023-02-12T01:16:24.056Z,101725.05
2023-02-12T01:18:55.925Z,101721.63
2023-02-12T01:21:29.078Z,101723.95
2023-02-12T01:23:58.394Z,101724.39
2023-02-12T01:26:29.214Z,101723.96
2023-02-12T01:29:01.618Z,101731.33
2023-02-12T01:31:34.608Z,101746.80
2023-02-12T01:34:04.290Z,101752.92
2023-02-12T01:36:32.671Z,101763.45
2023-02-12T01:39:03.041Z,101773.62
2023-02-12T01:41:39.974Z,101775.91
2023-02-12T01:44:22.026Z,101776.47
2023-02-12T01:47:05.725Z,101775.65
2023-02-12T01:49:40.445Z,101777.42
2023-02-12T01:52:27.465Z,101781.42
2023-02-12T01:55:00.507Z,101780.61
2023-02-12T01:57:33.284Z,101785.16
2023-02-12T02:00:07.469Z,101780.73
2023-02-12T02:02:39.190Z,101782.36
2023-02-12T02:05:08.024Z,101791.13
2023-02-12T02:07:36.384Z,101791.59
2023-02-12T02:10:05.599Z,101783.05
2023-02-12T02:12:53.822Z,101785.79
2023-02-12T02:15:22.261Z,101786.48
2023-02-12T02:18:01.099Z,101786.81
2023-02-12T02:20:58.226Z,101789.77
2023-02-12T02:24:06.003Z,101785.79
2023-02-12T02:26:50.337Z,101790.65
2023-02-12T02:30:08.958Z,101795.70
2023-02-12T02:32:46.337Z,101799.04
2023-02-12T02:35:26.519Z,101807.73
2023-02-12T02:38:06.118Z,101808.09
2023-02-12T02:40:53.493Z,101805.48
2023-02-12T02:43:30.750Z,101807.54
2023-02-12T02:46:12.124Z,101812.55
2023-02-12T02:48:48.078Z,101818.23
2023-02-12T02:51:24.992Z,101820.47
2023-02-12T02:54:07.720Z,101823.23
2023-02-12T02:56:43.408Z,101830.48
2023-02-12T02:59:18.888Z,101836.73
2023-02-12T03:02:04.111Z,101840.35
2023-02-12T03:04:41.497Z,101843.81
2023-02-12T03:07:26.890Z,101846.23
2023-02-12T03:10:27.297Z,101848.09
2023-02-12T03:13:09.752Z,101845.29
2023-02-12T03:15:46.507Z,101848.19
2023-02-12T03:18:25.545Z,101851.46
2023-02-12T03:21:13.670Z,101852.64
2023-02-12T03:23:59.053Z,101857.78
2023-02-12T03:26:46.799Z,101863.23
2023-02-12T03:29:15.200Z,101863.15
2023-02-12T03:32:06.296Z,101859.81
2023-02-12T03:35:06.883Z,101870.52
2023-02-12T03:37:56.794Z,101876.18
2023-02-12T03:40:39.870Z,101878.36
2023-02-12T03:43:25.785Z,101885.64
2023-02-12T03:46:05.981Z,101891.36
2023-02-12T03:49:08.230Z,101891.70
2023-02-12T03:51:40.642Z,101899.69
2023-02-12T03:54:12.765Z,101900.85
2023-02-12T03:56:52.167Z,101900.48
2023-02-12T03:59:23.066Z,101897.52
2023-02-12T04:01:57.605Z,101904.98
2023-02-12T04:04:27.095Z,101905.68
2023-02-12T04:06:56.157Z,101909.00
2023-02-12T04:09:27.839Z,101910.76
2023-02-12T04:12:30.021Z,101910.77
2023-02-12T04:15:18.678Z,101915.61
2023-02-12T04:18:19.245Z,101922.58
2023-02-12T04:21:31.845Z,101926.91
2023-02-12T04:24:17.283Z,101929.48
2023-02-12T04:26:55.422Z,101935.42
2023-02-12T04:29:50.637Z,101936.96
2023-02-12T04:32:31.746Z,101937.23
2023-02-12T04:35:17.943Z,101947.27
2023-02-12T04:37:55.359Z,101948.45
2023-02-12T04:40:24.390Z,101956.73
2023-02-12T04:42:53.763Z,101958.10
2023-02-12T04:45:28.002Z,101962.08
2023-02-12T04:47:57.434Z,101957.04
2023-02-12T04:50:26.970Z,101964.84
2023-02-12T04:52:55.334Z,101963.94
2023-02-12T04:55:23.664Z,101966.85
2023-02-12T04:57:52.032Z,101969.41
2023-02-12T05:00:20.752Z,101963.71
2023-02-12T05:02:49.449Z,101969.08
2023-02-12T05:05:18.477Z,101972.75
2023-02-12T05:07:46.814Z,101978.14
2023-02-12T05:10:15.550Z,101978.69
2023-02-12T05:12:43.896Z,101981.64
2023-02-12T05:15:12.235Z,101984.95
2023-02-12T05:17:40.634Z,101984.06
2023-02-12T05:20:10.557Z,101984.61
2023-02-12T05:22:42.069Z,101987.08
2023-02-12T05:25:11.701Z,101990.54
2023-02-12T05:27:40.078Z,101995.74
2023-02-12T05:30:09.608Z,101997.81
2023-02-12T05:32:37.995Z,101997.67
2023-02-12T05:35:07.291Z,102001.16
2023-02-12T05:37:36.783Z,102000.30
2023-02-12T05:40:06.811Z,102008.66
2023-02-12T05:42:35.219Z,102009.91
2023-02-12T05:45:03.922Z,102011.80
2023-02-12T05:47:32.314Z,102014.39
2023-02-12T05:50:01.119Z,102020.81
2023-02-12T05:52:29.506Z,102027.40
2023-02-12T05:54:57.842Z,102031.96
2023-02-12T05:57:26.189Z,102037.34
2023-02-12T05:59:54.646Z,102039.08
2023-02-12T06:02:23.008Z,102042.90
2023-02-12T06:04:51.500Z,102048.45
2023-02-12T06:07:19.891Z,102052.98
2023-02-12T06:09:48.246Z,102058.38
2023-02-12T06:12:16.716Z,102068.94
2023-02-12T06:14:45.083Z,102067.20
2023-02-12T06:17:13.686Z,102071.89
2023-02-12T06:19:41.997Z,102082.14
2023-02-12T06:22:10.318Z,102082.50
2023-02-12T06:24:38.634Z,102084.92
2023-02-12T06:27:06.979Z,102093.58
2023-02-12T06:29:35.300Z,102094.78
2023-02-12T06:32:03.887Z,102100.46
2023-02-12T06:34:32.376Z,102101.30
2023-02-12T06:37:00.810Z,102100.73
2023-02-12T06:39:29.125Z,102107.97
2023-02-12T06:41:57.649Z,102110.16
2023-02-12T06:44:25.943Z,102115.13
2023-02-12T06:46:54.335Z,102118.05
2023-02-12T06:49:22.672Z,102118.91
2023-02-12T06:51:50.965Z,102126.48
2023-02-12T06:54:19.389Z,102128.82
2023-02-12T06:56:47.783Z,102134.98
2023-02-12T06:59:17.173Z,102132.11
2023-02-12T07:01:45.579Z,102138.61
2023-02-12T07:04:14.273Z,102140.63
2023-02-12T07:06:44.874Z,102141.95
2023-02-12T07:09:17.287Z,102142.70
2023-02-12T07:11:49.662Z,102147.27
2023-02-12T07:14:18.718Z,102155.13
2023-02-12T07:16:49.708Z,102159.90
2023-02-12T07:19:18.327Z,102160.33
2023-02-12T07:21:48.062Z,102162.48
2023-02-12T07:24:21.087Z,102168.30
2023-02-12T07:26:54.380Z,102174.50
2023-02-12T07:29:22.686Z,102179.64
2023-02-12T07:31:53.327Z,102183.73
2023-02-12T07:34:23.051Z,102182.98
2023-02-12T07:36:51.370Z,102188.46
2023-02-12T07:39:19.821Z,102187.61
2023-02-12T07:41:51.964Z,102184.05
2023-02-12T07:44:21.425Z,102183.24
2023-02-12T07:46:50.871Z,102183.49
2023-02-12T07:49:22.320Z,102180.97
2023-02-12T07:51:50.786Z,102186.23
2023-02-12T07:54:21.967Z,102186.98
2023-02-12T07:56:50.984Z,102190.67
2023-02-12T07:59:22.713Z,102197.00
2023-02-12T08:01:54.866Z,102198.48
2023-02-12T08:04:27.066Z,102203.27
2023-02-12T08:07:07.113Z,102205.52
2023-02-12T08:09:35.466Z,102205.11
2023-02-12T08:12:12.327Z,102204.81
2023-02-12T08:14:42.171Z,102208.84
2023-02-12T08:17:11.464Z,102211.33
2023-02-12T08:19:39.847Z,102212.03
2023-02-12T08:22:08.253Z,102211.33
2023-02-12T08:24:36.606Z,102212.86
2023-02-12T08:27:05.554Z,102213.52
2023-02-12T08:29:33.901Z,102214.27
2023-02-12T08:32:03.935Z,102215.98
2023-02-12T08:34:35.424Z,102214.55
2023-02-12T08:37:06.781Z,102212.77
2023-02-12T08:39:35.292Z,102216.81
2023-02-12T08:42:03.916Z,102216.52
2023-02-12T08:44:33.802Z,102217.06
2023-02-12T08:47:02.264Z,102225.42
2023-02-12T08:49:30.915Z,102227.30
2023-02-12T08:52:01.724Z,102230.23
2023-02-12T08:54:32.325Z,102229.66
2023-02-12T08:57:03.295Z,102230.52
2023-02-12T08:59:31.927Z,102233.36
2023-02-12T09:02:01.129Z,102233.39
2023-02-12T09:04:29.949Z,102234.45
2023-02-12T09:06:58.455Z,102241.86
2023-02-12T09:09:27.381Z,102242.05
2023-02-12T09:11:56.071Z,102247.27
2023-02-12T09:14:25.142Z,102248.70
2023-02-12T09:16:54.683Z,102250.20
2023-02-12T09:19:23.465Z,102252.94
2023-02-12T09:21:57.054Z,102258.52
2023-02-12T09:24:27.741Z,102253.56
2023-02-12T09:26:56.882Z,102259.48
2023-02-12T09:29:25.392Z,102257.62
2023-02-12T09:31:54.098Z,102254.44
2023-02-12T09:34:22.728Z,102257.60
2023-02-12T09:36:51.120Z,102262.99
2023-02-12T09:39:19.534Z,102266.23
2023-02-12T09:42:12.384Z,102271.33
2023-02-12T09:44:50.055Z,102274.27
2023-02-12T09:47:40.726Z,102276.02
2023-02-12T09:50:39.061Z,102273.75
2023-02-12T09:53:14.788Z,102276.77
2023-02-12T09:55:43.194Z,102275.46
2023-02-12T10:02:19.956Z,102274.75
2023-02-12T10:05:01.124Z,102278.13
2023-02-12T10:08:03.667Z,102279.35
2023-02-12T10:11:06.182Z,102273.14
2023-02-12T10:14:16.068Z,102275.44
2023-02-12T10:16:54.403Z,102278.09
2023-02-12T10:19:52.807Z,102277.63
2023-02-12T10:23:03.371Z,102282.58
2023-02-12T10:25:54.494Z,102281.63
2023-02-12T10:28:38.394Z,102277.54
2023-02-12T10:34:27.066Z,102266.52
2023-02-12T10:37:05.931Z,102269.80
2023-02-12T10:42:46.196Z,102271.67
2023-02-12T10:45:19.102Z,102265.29
2023-02-12T10:47:51.844Z,102266.29
2023-02-12T10:50:37.652Z,102266.88
2023-02-12T10:53:06.098Z,102263.77
2023-02-12T10:55:39.344Z,102258.46
2023-02-12T10:58:25.334Z,102258.11
2023-02-12T11:01:03.035Z,102252.93
2023-02-12T11:03:34.464Z,102249.56
2023-02-12T11:06:19.712Z,102253.74
2023-02-12T11:08:49.037Z,102245.41
2023-02-12T11:11:28.238Z,102248.73
2023-02-12T11:14:04.180Z,102252.77
2023-02-12T11:16:51.109Z,102249.72
2023-02-12T11:19:29.499Z,102253.20
2023-02-12T11:22:14.586Z,102253.48
2023-02-12T11:24:43.039Z,102249.07
2023-02-12T11:27:25.261Z,102252.50
2023-02-12T11:30:21.788Z,102255.23
2023-02-12T11:32:51.694Z,102254.47
2023-02-12T11:35:25.911Z,102248.19
2023-02-12T11:37:58.368Z,102244.25
2023-02-12T11:40:31.371Z,102245.20
2023-02-12T11:43:06.044Z,102247.42
2023-02-12T11:45:44.853Z,102250.14
2023-02-12T11:48:34.779Z,102251.47
2023-02-12T11:51:09.220Z,102245.46
2023-02-12T11:53:49.839Z,102242.00
2023-02-12T11:56:18.425Z,102249.12
2023-02-12T11:58:49.290Z,102246.92
2023-02-12T12:01:31.248Z,102245.46
2023-02-12T12:04:13.927Z,102244.02
2023-02-12T12:07:11.780Z,102242.48
2023-02-12T12:09:51.646Z,102241.68
2023-02-12T12:12:45.832Z,102242.96
2023-02-12T12:15:54.021Z,102247.79
2023-02-12T12:18:57.536Z,102239.72
2023-02-12T12:21:40.102Z,102236.85
2023-02-12T12:24:44.396Z,102238.33
2023-02-12T12:27:43.480Z,102244.23
2023-02-12T12:30:36.683Z,102245.05
2023-02-12T12:33:16.524Z,102239.34
2023-02-12T12:36:01.592Z,102236.77
2023-02-12T12:39:04.444Z,102236.86
2023-02-12T12:42:01.001Z,102229.80
2023-02-12T12:44:59.007Z,102231.29
2023-02-12T12:47:32.510Z,102227.42
2023-02-12T12:50:23.802Z,102223.09
2023-02-12T12:53:19.881Z,102219.25
2023-02-12T12:56:00.115Z,102215.48
2023-02-12T12:58:45.369Z,102211.58
2023-02-12T13:01:48.901Z,102213.50
2023-02-12T13:04:29.324Z,102215.95
2023-02-12T13:07:52.247Z,102215.59
2023-02-12T13:10:51.006Z,102223.70
2023-02-12T13:13:26.461Z,102224.59
2023-02-12T13:16:25.938Z,102227.11
2023-02-12T13:19:32.423Z,102225.17
2023-02-12T13:22:22.276Z,102228.25
2023-02-12T13:25:31.773Z,102227.02
2023-02-12T13:28:03.054Z,102227.73
2023-02-12T13:30:45.248Z,102228.59
2023-02-12T13:33:42.616Z,102234.45
2023-02-12T13:36:14.783Z,102229.38
2023-02-12T13:38:59.670Z,102231.15
2023-02-12T13:41:29.795Z,102234.65
2023-02-12T13:44:14.551Z,102236.14
2023-02-12T13:47:01.504Z,102235.66
2023-02-12T13:49:48.076Z,102233.17
2023-02-12T13:52:48.601Z,102234.91
2023-02-12T13:55:48.486Z,102230.91
2023-02-12T13:58:35.092Z,102228.56
2023-02-12T14:01:37.542Z,102232.12
2023-02-12T14:04:33.097Z,102233.36
2023-02-12T14:07:06.710Z,102230.28
2023-02-12T14:09:46.675Z,102229.83
2023-02-12T14:12:43.046Z,102228.45
2023-02-12T14:15:29.798Z,102226.81
2023-02-12T14:18:27.558Z,102230.16
2023-02-12T14:21:11.130Z,102234.13
2023-02-12T14:23:42.271Z,102238.63
2023-02-12T14:26:20.260Z,102237.91
2023-02-12T14:29:06.811Z,102234.42
2023-02-12T14:31:38.198Z,102230.43
2023-02-12T14:34:06.803Z,102228.20
2023-02-12T14:36:39.245Z,102231.85
2023-02-12T14:39:20.155Z,102235.27
2023-02-12T14:42:11.748Z,102232.18
2023-02-12T14:45:31.850Z,102231.69
2023-02-12T14:48:00.911Z,102232.75
2023-02-12T14:50:39.907Z,102240.10
2023-02-12T14:53:35.177Z,102246.00
2023-02-12T14:56:05.427Z,102245.48
2023-02-12T14:58:36.422Z,102247.73
2023-02-12T15:01:06.817Z,102248.02
2023-02-12T15:03:59.122Z,102249.15
2023-02-12T15:06:43.078Z,102245.89
2023-02-12T15:09:37.587Z,102243.62
2023-02-12T15:12:19.598Z,102242.90
2023-02-12T15:15:19.617Z,102239.97
2023-02-12T15:18:00.271Z,102235.67
2023-02-12T15:20:50.740Z,102241.91
2023-02-12T15:23:44.388Z,102244.32
2023-02-12T15:26:22.960Z,102251.25
2023-02-12T15:28:55.984Z,102250.78
2023-02-12T15:31:31.397Z,102249.64
2023-02-12T15:34:07.347Z,102251.86
2023-02-12T15:36:38.220Z,102254.92
2023-02-12T15:39:09.258Z,102257.30
2023-02-12T15:41:40.445Z,102252.27
2023-02-12T15:44:27.979Z,102254.06
2023-02-12T15:47:17.590Z,102258.46
2023-02-12T15:49:54.605Z,102261.98
2023-02-12T15:52:34.831Z,102261.63
2023-02-12T15:55:06.158Z,102258.48
2023-02-12T15:57:35.720Z,102261.94
2023-02-12T16:00:15.127Z,102264.15
2023-02-12T16:02:43.636Z,102266.57
2023-02-12T16:05:15.632Z,102267.46
2023-02-12T16:07:46.694Z,102270.20
2023-02-12T16:10:21.058Z,102270.66
2023-02-12T16:12:55.994Z,102271.45
2023-02-12T16:15:36.943Z,102269.80
2023-02-12T16:18:07.299Z,102272.34
2023-02-12T16:20:39.561Z,102271.37
2023-02-12T16:23:10.820Z,102267.81
2023-02-12T16:25:41.798Z,102274.70
2023-02-12T16:28:30.610Z,102281.39
2023-02-12T16:31:15.701Z,102278.58
2023-02-12T16:33:53.130Z,102282.27
2023-02-12T16:36:24.508Z,102284.72
2023-02-12T16:38:55.123Z,102283.31
2023-02-12T16:41:32.554Z,102287.80
2023-02-12T16:44:00.964Z,102291.12
2023-02-12T16:46:50.817Z,102293.05
2023-02-12T16:49:25.982Z,102286.77
2023-02-12T16:52:28.334Z,102285.70
2023-02-12T16:55:00.751Z,102283.64
2023-02-12T16:57:29.208Z,102290.71
2023-02-12T16:59:57.790Z,102294.49
2023-02-12T17:02:26.562Z,102287.21
2023-02-12T17:04:56.807Z,102288.86
2023-02-12T17:07:29.144Z,102290.01
2023-02-12T17:10:02.646Z,102292.93
2023-02-12T17:12:31.201Z,102301.55
2023-02-12T17:15:05.033Z,102304.21
2023-02-12T17:28:01.702Z,102303.05
2023-02-12T17:30:38.103Z,102304.21
2023-02-12T17:33:52.533Z,102307.01
2023-02-12T17:36:33.771Z,102308.83
2023-02-12T17:39:06.572Z,102306.86
2023-02-12T17:41:41.512Z,102308.00
2023-02-12T17:44:15.579Z,102304.29
2023-02-12T17:57:33.778Z,102299.46
2023-02-12T18:00:07.041Z,102305.50
2023-02-12T18:02:36.036Z,102308.86
2023-02-12T18:05:04.978Z,102308.10
2023-02-12T18:07:35.771Z,102306.13
2023-02-12T18:10:24.297Z,102302.38
2023-02-12T18:12:58.000Z,102305.94
2023-02-12T18:15:36.690Z,102307.41
2023-02-12T18:18:10.020Z,102303.16
2023-02-12T18:20:50.327Z,102301.39
2023-02-12T18:23:49.740Z,102298.89
2023-02-12T18:26:24.334Z,102299.89
2023-02-12T18:29:01.302Z,102295.45
2023-02-12T18:31:36.153Z,102297.41
2023-02-12T18:34:33.988Z,102298.52
2023-02-12T18:37:09.821Z,102295.31
2023-02-12T18:39:46.796Z,102300.23
2023-02-12T18:42:40.927Z,102297.19
2023-02-12T18:45:16.769Z,102296.23
2023-02-12T18:47:55.843Z,102299.09
2023-02-12T18:50:30.355Z,102301.07
2023-02-12T18:53:01.027Z,102298.17
2023-02-12T18:55:48.555Z,102297.19
2023-02-12T18:58:18.624Z,102296.73
2023-02-12T19:00:56.968Z,102292.45
2023-02-12T19:03:27.541Z,102289.19
2023-02-12T19:06:04.455Z,102288.15
2023-02-12T19:08:33.530Z,102285.27
2023-02-12T19:11:07.550Z,102285.31
2023-02-12T19:13:36.958Z,102285.02
2023-02-12T19:16:27.845Z,102286.83
2023-02-12T19:19:02.977Z,102294.70
2023-02-12T19:21:36.597Z,102296.45
2023-02-12T19:24:08.452Z,102293.54
2023-02-12T19:26:37.521Z,102295.10
2023-02-12T19:29:11.680Z,102298.77
2023-02-12T19:31:49.928Z,102293.58
2023-02-12T19:34:41.936Z,102295.30
2023-02-12T19:37:28.431Z,102296.14
2023-02-12T19:40:03.632Z,102294.81
2023-02-12T19:42:38.504Z,102295.36
2023-02-12T19:45:17.195Z,102295.41
2023-02-12T19:47:53.226Z,102299.41
2023-02-12T19:50:26.849Z,102298.75
2023-02-12T19:52:56.437Z,102298.78
2023-02-12T19:55:25.257Z,102297.55
2023-02-12T19:57:54.507Z,102298.39
2023-02-12T20:00:29.147Z,102294.91
2023-02-12T20:03:06.782Z,102296.64
2023-02-12T20:05:51.550Z,102293.72
2023-02-12T20:08:25.161Z,102301.02
2023-02-12T20:10:58.620Z,102302.63
2023-02-12T20:13:29.223Z,102301.10
2023-02-12T20:16:21.718Z,102303.73
2023-02-12T20:19:00.104Z,102302.54
2023-02-12T20:21:30.031Z,102305.00
2023-02-12T20:24:06.063Z,102304.86
2023-02-12T20:26:51.084Z,102306.27
2023-02-12T20:29:25.615Z,102309.99
2023-02-12T20:32:01.521Z,102306.40
2023-02-12T20:34:32.929Z,102307.16
2023-02-12T20:37:06.655Z,102312.59
2023-02-12T20:39:37.139Z,102315.42
2023-02-12T20:42:08.106Z,102316.01
2023-02-12T20:44:37.505Z,102312.09
2023-02-12T20:47:06.039Z,102312.63
2023-02-12T20:49:35.752Z,102314.45
2023-02-12T20:52:06.645Z,102311.23
2023-02-12T20:54:35.214Z,102310.46
2023-02-12T20:57:06.861Z,102310.22
2023-02-12T20:59:35.380Z,102312.77
2023-02-12T21:02:04.093Z,102310.94
2023-02-12T21:04:32.944Z,102308.60
2023-02-12T21:07:01.803Z,102312.66
2023-02-12T21:09:30.415Z,102310.11
2023-02-12T21:11:59.976Z,102313.25
2023-02-12T21:14:29.922Z,102312.41
2023-02-12T21:16:58.319Z,102312.64
2023-02-12T21:19:35.028Z,102311.61
2023-02-12T21:22:12.219Z,102316.66
2023-02-12T21:24:41.424Z,102318.60
2023-02-12T21:27:13.099Z,102320.87
2023-02-12T21:29:41.518Z,102318.63
2023-02-12T21:32:10.104Z,102313.95
2023-02-12T21:34:39.674Z,102309.94
2023-02-12T21:37:08.310Z,102308.03
2023-02-12T21:39:37.644Z,102305.93
2023-02-12T21:42:08.097Z,102305.59
2023-02-12T21:44:37.029Z,102304.55
2023-02-12T21:47:07.339Z,102303.14
2023-02-12T21:49:35.879Z,102298.62
2023-02-12T21:52:06.738Z,102295.81
2023-02-12T21:54:35.659Z,102295.27
2023-02-12T21:57:04.229Z,102295.73
2023-02-12T21:59:32.750Z,102299.21
2023-02-12T22:02:01.824Z,102305.10
2023-02-12T22:04:34.157Z,102303.38
2023-02-12T22:07:03.627Z,102302.51
2023-02-12T22:09:32.644Z,102304.22
2023-02-12T22:12:01.211Z,102306.59
2023-02-12T22:14:29.858Z,102309.17
2023-02-12T22:16:58.988Z,102310.38
2023-02-12T22:19:27.505Z,102310.02
2023-02-12T22:21:56.015Z,102311.56
2023-02-12T22:24:24.466Z,102311.58
2023-02-12T22:26:57.595Z,102304.98
2023-02-12T22:29:26.416Z,102306.38
2023-02-12T22:31:55.298Z,102306.55
2023-02-12T22:34:24.026Z,102303.10
2023-02-12T22:36:55.158Z,102303.24
2023-02-12T22:39:23.850Z,102306.54
2023-02-12T22:41:52.232Z,102302.05
2023-02-12T22:44:49.027Z,102306.44
2023-02-12T22:47:17.428Z,102312.21
2023-02-12T22:49:45.886Z,102311.38
2023-02-12T22:52:14.348Z,102312.14
2023-02-12T22:54:42.771Z,102314.93
2023-02-12T22:57:11.545Z,102314.96
2023-02-12T22:59:39.871Z,102312.17
2023-02-12T23:02:08.615Z,102308.52
2023-02-12T23:04:37.128Z,102309.73
2023-02-12T23:07:05.552Z,102303.69
2023-02-12T23:09:33.983Z,102298.15
2023-02-12T23:12:07.578Z,102300.63
2023-02-12T23:14:36.212Z,102298.22
2023-02-12T23:17:04.746Z,102297.58
2023-02-12T23:19:33.172Z,102298.61
2023-02-12T23:22:02.241Z,102296.56
2023-02-12T23:24:31.075Z,102299.39
2023-02-12T23:26:59.464Z,102297.20
2023-02-12T23:29:29.948Z,102298.14
2023-02-12T23:31:59.366Z,102299.91
2023-02-12T23:34:32.271Z,102297.01
2023-02-12T23:37:04.336Z,102298.98
2023-02-12T23:39:33.437Z,102294.86
2023-02-12T23:42:04.978Z,102298.70
2023-02-12T23:44:33.560Z,102296.81
2023-02-12T23:47:02.129Z,102288.52
2023-02-12T23:49:30.452Z,102286.30
2023-02-12T23:51:58.823Z,102287.73
2023-02-12T23:54:27.121Z,102281.31
2023-02-12T23:56:55.466Z,102282.00
2023-02-12T23:59:26.756Z,102282.52
